createdAt,value
2022-08-19T00:00:07.597Z,47.74
2022-08-19T00:02:34.284Z,47.48
2022-08-19T00:05:01.114Z,47.58
2022-08-19T00:07:27.970Z,47.68
2022-08-19T00:09:54.822Z,47.79
2022-08-19T00:12:23.644Z,47.68
2022-08-19T00:14:50.344Z,47.41
2022-08-19T00:17:16.947Z,47.16
2022-08-19T00:19:43.597Z,47.46
2022-08-19T00:22:10.866Z,47.66
2022-08-19T00:24:39.417Z,48.51
2022-08-19T00:27:26.511Z,48.06
2022-08-19T00:29:53.261Z,48.30
2022-08-19T00:32:20.180Z,47.49
2022-08-19T00:34:47.351Z,47.12
2022-08-19T00:37:14.058Z,46.94
2022-08-19T00:39:40.762Z,47.45
2022-08-19T00:42:07.583Z,47.31
2022-08-19T00:44:34.218Z,48.02
2022-08-19T00:47:01.066Z,49.26
2022-08-19T00:49:51.703Z,48.32
2022-08-19T00:52:30.065Z,47.72
2022-08-19T00:54:58.144Z,48.18
2022-08-19T00:57:33.460Z,47.86
2022-08-19T01:00:03.463Z,47.32
2022-08-19T01:02:32.261Z,48.41
2022-08-19T01:05:01.343Z,47.97
2022-08-19T01:07:28.237Z,48.86
2022-08-19T01:10:03.097Z,49.75
2022-08-19T01:12:29.844Z,49.96
2022-08-19T01:14:56.843Z,49.73
2022-08-19T01:17:25.817Z,50.34
2022-08-19T01:19:53.233Z,50.83
2022-08-19T01:22:30.157Z,50.84
2022-08-19T01:24:57.852Z,51.00
2022-08-19T01:27:26.047Z,51.53
2022-08-19T01:29:52.851Z,51.86
2022-08-19T01:32:33.601Z,51.82
2022-08-19T01:35:04.170Z,52.23
2022-08-19T01:37:54.406Z,52.69
2022-08-19T01:40:24.141Z,52.87
2022-08-19T01:42:52.571Z,52.88
2022-08-19T01:45:22.447Z,52.50
2022-08-19T01:47:52.680Z,53.07
2022-08-19T01:50:28.765Z,51.89
2022-08-19T01:53:06.022Z,50.59
2022-08-19T01:55:34.680Z,50.77
2022-08-19T01:58:05.518Z,51.74
2022-08-19T02:00:33.803Z,51.21
2022-08-19T02:03:02.038Z,51.78
2022-08-19T02:05:30.249Z,50.98
2022-08-19T02:07:58.225Z,51.20
2022-08-19T02:10:24.989Z,50.85
2022-08-19T02:12:52.237Z,50.94
2022-08-19T02:15:20.712Z,50.99
2022-08-19T02:17:47.914Z,50.94
2022-08-19T02:20:15.172Z,51.51
2022-08-19T02:22:43.403Z,51.44
2022-08-19T02:25:14.750Z,51.51
2022-08-19T02:27:43.203Z,51.44
2022-08-19T02:30:17.106Z,51.54
2022-08-19T02:32:54.284Z,52.15
2022-08-19T02:35:21.580Z,51.82
2022-08-19T02:38:07.048Z,52.10
2022-08-19T02:40:35.430Z,52.40
2022-08-19T02:43:08.535Z,52.54
2022-08-19T02:45:40.512Z,52.46
2022-08-19T02:48:17.889Z,52.62
2022-08-19T02:50:53.902Z,52.42
2022-08-19T02:53:20.609Z,52.68
2022-08-19T02:55:48.260Z,52.89
2022-08-19T02:58:15.984Z,52.88
2022-08-19T03:00:49.997Z,53.08
2022-08-19T03:03:17.720Z,52.91
2022-08-19T03:05:55.947Z,52.79
2022-08-19T03:08:25.315Z,52.59
2022-08-19T03:10:53.136Z,52.20
2022-08-19T03:13:19.808Z,51.69
2022-08-19T03:15:48.768Z,51.71
2022-08-19T03:18:18.078Z,51.62
2022-08-19T03:20:55.971Z,51.54
2022-08-19T03:23:24.770Z,51.61
2022-08-19T03:26:02.692Z,51.69
2022-08-19T03:28:39.929Z,51.97
2022-08-19T03:31:41.604Z,51.52
2022-08-19T03:33:58.272Z,51.28
2022-08-19T03:36:28.595Z,51.37
2022-08-19T03:39:00.135Z,51.60
2022-08-19T03:41:34.184Z,51.83
2022-08-19T03:44:16.709Z,51.79
2022-08-19T03:46:44.746Z,52.08
2022-08-19T03:49:11.619Z,52.28
2022-08-19T03:51:44.166Z,52.44
2022-08-19T03:54:14.233Z,52.44
2022-08-19T03:56:42.545Z,52.65
2022-08-19T03:59:17.588Z,53.03
2022-08-19T04:01:44.546Z,53.23
2022-08-19T04:04:11.641Z,52.95
2022-08-19T04:06:39.856Z,52.95
2022-08-19T04:09:10.452Z,52.84
2022-08-19T04:11:44.967Z,52.97
2022-08-19T04:14:18.923Z,52.96
2022-08-19T04:16:49.673Z,53.00
2022-08-19T04:19:18.093Z,52.89
2022-08-19T04:21:46.863Z,52.64
2022-08-19T04:24:14.018Z,52.02
2022-08-19T04:26:42.054Z,52.38
2022-08-19T04:29:17.881Z,52.54
2022-08-19T04:31:46.204Z,52.31
2022-08-19T04:34:15.367Z,51.92
2022-08-19T04:36:45.791Z,52.10
2022-08-19T04:39:17.414Z,51.68
2022-08-19T04:42:03.877Z,51.66
2022-08-19T04:44:33.460Z,51.54
2022-08-19T04:47:11.347Z,51.39
2022-08-19T04:49:38.589Z,51.27
2022-08-19T04:52:05.299Z,51.53
2022-08-19T04:54:37.421Z,51.49
2022-08-19T04:57:08.534Z,51.52
2022-08-19T04:59:36.224Z,51.74
2022-08-19T05:02:03.393Z,51.86
2022-08-19T05:04:31.974Z,51.76
2022-08-19T05:07:00.674Z,51.63
2022-08-19T05:09:39.078Z,51.97
2022-08-19T05:12:16.703Z,51.76
2022-08-19T05:14:44.309Z,51.26
2022-08-19T05:17:27.294Z,51.44
2022-08-19T05:20:15.452Z,51.43
2022-08-19T05:22:43.981Z,51.55
2022-08-19T05:25:16.084Z,52.33
2022-08-19T05:27:43.819Z,52.24
2022-08-19T05:30:13.500Z,52.04
2022-08-19T05:32:41.417Z,52.45
2022-08-19T05:35:08.722Z,52.29
2022-08-19T05:37:35.418Z,52.54
2022-08-19T05:40:02.477Z,52.77
2022-08-19T05:42:29.336Z,52.83
2022-08-19T05:44:57.789Z,52.58
2022-08-19T05:47:24.630Z,52.32
2022-08-19T05:49:51.852Z,52.38
2022-08-19T05:52:26.188Z,52.18
2022-08-19T05:54:56.174Z,51.72
2022-08-19T05:57:23.717Z,51.41
2022-08-19T05:59:52.889Z,51.67
2022-08-19T06:02:31.777Z,51.17
2022-08-19T06:04:58.911Z,50.83
2022-08-19T06:07:25.798Z,50.36
2022-08-19T06:10:00.010Z,50.61
2022-08-19T06:12:35.082Z,50.47
2022-08-19T06:15:04.624Z,50.15
2022-08-19T06:17:32.265Z,50.23
2022-08-19T06:19:59.898Z,50.19
2022-08-19T06:22:27.615Z,50.48
2022-08-19T06:24:55.519Z,49.73
2022-08-19T06:27:23.093Z,49.88
2022-08-19T06:29:50.397Z,49.44
2022-08-19T06:32:19.779Z,48.72
2022-08-19T06:34:47.492Z,48.81
2022-08-19T06:37:14.519Z,48.27
2022-08-19T06:39:45.859Z,48.14
2022-08-19T06:42:17.667Z,47.92
2022-08-19T06:44:48.879Z,47.58
2022-08-19T06:47:23.511Z,47.81
2022-08-19T06:50:05.346Z,47.35
2022-08-19T06:52:36.729Z,48.52
2022-08-19T06:55:06.903Z,48.38
2022-08-19T06:57:35.369Z,47.97
2022-08-19T07:00:12.256Z,47.43
2022-08-19T07:02:48.097Z,47.34
2022-08-19T07:05:23.728Z,48.00
2022-08-19T07:07:51.658Z,48.17
2022-08-19T07:10:20.142Z,48.88
2022-08-19T07:12:50.026Z,49.17
2022-08-19T07:15:17.291Z,49.17
2022-08-19T07:17:45.831Z,49.89
2022-08-19T07:20:16.959Z,49.65
2022-08-19T07:22:46.570Z,49.42
2022-08-19T07:25:16.901Z,48.51
2022-08-19T07:27:46.339Z,48.20
2022-08-19T07:30:14.931Z,48.34
2022-08-19T07:32:41.817Z,48.23
2022-08-19T07:35:10.862Z,48.30
2022-08-19T07:37:38.315Z,48.54
2022-08-19T07:40:08.152Z,48.44
2022-08-19T07:42:36.514Z,47.51
2022-08-19T07:45:05.517Z,47.32
2022-08-19T07:47:47.766Z,49.16
2022-08-19T07:50:21.921Z,50.73
2022-08-19T07:52:51.034Z,51.37
2022-08-19T07:55:41.159Z,49.64
2022-08-19T07:58:09.693Z,49.13
2022-08-19T08:00:37.170Z,48.19
2022-08-19T08:03:03.935Z,46.63
2022-08-19T08:05:49.072Z,47.53
2022-08-19T08:08:34.307Z,47.26
2022-08-19T08:11:01.593Z,46.28
2022-08-19T08:13:29.069Z,45.29
2022-08-19T08:15:56.721Z,45.17
2022-08-19T08:18:27.477Z,44.96
2022-08-19T08:20:56.041Z,44.91
2022-08-19T08:23:31.084Z,44.65
2022-08-19T08:26:00.108Z,43.15
2022-08-19T08:28:29.703Z,43.00
2022-08-19T08:30:57.427Z,41.94
2022-08-19T08:33:32.712Z,42.02
2022-08-19T08:36:00.141Z,42.01
2022-08-19T08:38:26.882Z,40.67
2022-08-19T08:41:07.770Z,40.51
2022-08-19T08:43:38.155Z,39.80
2022-08-19T08:46:12.876Z,39.83
2022-08-19T08:49:04.696Z,39.68
2022-08-19T08:54:18.799Z,37.08
2022-08-19T08:56:47.059Z,37.18
2022-08-19T08:59:33.379Z,36.92
2022-08-19T09:02:00.891Z,36.61
2022-08-19T09:04:28.451Z,36.45
2022-08-19T09:07:35.433Z,36.18
2022-08-19T09:10:23.995Z,35.36
2022-08-19T09:13:03.693Z,35.54
2022-08-19T09:15:43.641Z,35.15
2022-08-19T09:18:15.403Z,34.88
2022-08-19T09:20:47.971Z,34.57
2022-08-19T09:23:14.610Z,34.09
2022-08-19T09:25:41.225Z,34.31
2022-08-19T09:28:15.035Z,33.96
2022-08-19T09:30:49.642Z,33.29
2022-08-19T09:33:20.988Z,33.50
2022-08-19T09:35:49.618Z,33.20
2022-08-19T09:38:19.715Z,33.21
2022-08-19T09:40:46.349Z,33.26
2022-08-19T09:43:13.560Z,32.43
2022-08-19T09:45:41.272Z,32.96
2022-08-19T09:48:09.559Z,33.05
2022-08-19T09:50:51.619Z,33.02
2022-08-19T09:53:20.297Z,32.50
2022-08-19T09:55:47.075Z,32.22
2022-08-19T09:58:13.772Z,31.82
2022-08-19T10:00:40.558Z,31.33
2022-08-19T10:03:07.248Z,30.64
2022-08-19T10:05:50.633Z,30.77
2022-08-19T10:08:31.300Z,29.52
2022-08-19T10:10:58.865Z,29.56
2022-08-19T10:13:27.728Z,29.27
2022-08-19T10:15:57.184Z,29.85
2022-08-19T10:18:25.501Z,28.66
2022-08-19T10:20:54.633Z,29.49
2022-08-19T10:23:22.513Z,29.27
2022-08-19T10:25:50.706Z,29.71
2022-08-19T10:28:19.512Z,28.63
2022-08-19T10:30:48.580Z,27.75
2022-08-19T10:33:38.671Z,28.25
2022-08-19T10:36:18.637Z,27.17
2022-08-19T10:38:51.153Z,27.62
2022-08-19T10:41:25.337Z,27.18
2022-08-19T10:43:55.560Z,27.07
2022-08-19T10:46:24.394Z,26.89
2022-08-19T10:48:52.460Z,26.85
2022-08-19T10:51:46.545Z,26.50
2022-08-19T10:54:15.869Z,26.89
2022-08-19T10:56:56.065Z,26.52
2022-08-19T10:59:33.821Z,26.28
2022-08-19T11:02:05.174Z,25.81
2022-08-19T11:04:33.003Z,25.55
2022-08-19T11:06:59.880Z,25.30
2022-08-19T11:09:34.294Z,25.52
2022-08-19T11:12:03.061Z,24.78
2022-08-19T11:14:34.057Z,24.88
2022-08-19T11:17:01.677Z,24.40
2022-08-19T11:19:28.620Z,24.76
2022-08-19T11:21:57.535Z,23.50
2022-08-19T11:24:27.050Z,24.05
2022-08-19T11:27:00.042Z,24.14
2022-08-19T11:29:28.626Z,24.17
2022-08-19T11:31:55.994Z,23.56
2022-08-19T11:34:26.248Z,23.77
2022-08-19T11:36:59.071Z,23.60
2022-08-19T11:39:27.610Z,22.70
2022-08-19T11:41:54.313Z,23.02
2022-08-19T11:44:20.994Z,23.01
2022-08-19T11:46:47.955Z,22.26
2022-08-19T11:49:16.589Z,22.53
2022-08-19T11:51:46.874Z,22.58
2022-08-19T11:54:17.076Z,22.19
2022-08-19T11:56:44.744Z,21.44
2022-08-19T11:59:14.825Z,21.58
2022-08-19T12:01:43.544Z,21.19
2022-08-19T12:04:11.498Z,21.69
2022-08-19T12:06:41.587Z,20.96
2022-08-19T12:09:10.621Z,20.37
2022-08-19T12:11:39.257Z,21.44
2022-08-19T12:14:06.393Z,20.98
2022-08-19T12:16:33.770Z,21.73
2022-08-19T12:19:04.863Z,21.79
2022-08-19T12:21:34.519Z,21.37
2022-08-19T12:24:03.320Z,20.56
2022-08-19T12:26:32.506Z,20.61
2022-08-19T12:29:00.524Z,21.33
2022-08-19T12:31:31.052Z,21.64
2022-08-19T12:33:58.008Z,21.54
2022-08-19T12:36:25.858Z,21.44
2022-08-19T12:38:53.498Z,20.87
2022-08-19T12:41:23.115Z,20.51
2022-08-19T12:43:50.884Z,19.93
2022-08-19T12:46:19.912Z,20.64
2022-08-19T12:48:49.080Z,20.58
2022-08-19T12:51:21.408Z,19.93
2022-08-19T12:53:50.611Z,19.80
2022-08-19T12:56:22.292Z,19.73
2022-08-19T12:58:50.575Z,20.35
2022-08-19T13:01:22.509Z,19.46
2022-08-19T13:03:53.134Z,19.12
2022-08-19T13:06:20.332Z,19.14
2022-08-19T13:08:47.405Z,19.13
2022-08-19T13:11:18.732Z,19.12
2022-08-19T13:13:48.399Z,19.65
2022-08-19T13:16:15.896Z,19.21
2022-08-19T13:18:45.018Z,19.34
2022-08-19T13:21:14.985Z,18.48
2022-08-19T13:23:42.452Z,18.78
2022-08-19T13:26:10.954Z,18.97
2022-08-19T13:28:56.554Z,18.57
2022-08-19T13:31:44.791Z,19.21
2022-08-19T13:34:12.215Z,18.93
2022-08-19T13:36:39.607Z,18.64
2022-08-19T13:39:21.759Z,18.79
2022-08-19T13:41:51.570Z,18.11
2022-08-19T13:44:19.824Z,18.53
2022-08-19T13:46:49.596Z,18.07
2022-08-19T13:49:21.437Z,17.87
2022-08-19T13:51:48.241Z,17.79
2022-08-19T13:54:30.086Z,18.01
2022-08-19T13:56:56.756Z,16.99
2022-08-19T13:59:23.420Z,17.41
2022-08-19T14:01:51.004Z,17.02
2022-08-19T14:04:17.653Z,17.38
2022-08-19T14:06:44.261Z,17.71
2022-08-19T14:09:10.889Z,17.61
2022-08-19T14:11:39.697Z,17.60
2022-08-19T14:14:06.623Z,17.44
2022-08-19T14:16:33.282Z,17.44
2022-08-19T14:19:00.022Z,17.74
2022-08-19T14:21:26.877Z,17.77
2022-08-19T14:23:54.467Z,17.51
2022-08-19T14:26:22.903Z,17.84
2022-08-19T14:28:50.409Z,17.73
2022-08-19T14:31:20.021Z,17.35
2022-08-19T14:33:48.166Z,17.89
2022-08-19T14:36:15.808Z,18.14
2022-08-19T14:38:43.063Z,18.50
2022-08-19T14:41:21.863Z,18.43
2022-08-19T14:43:50.980Z,18.97
2022-08-19T14:46:21.559Z,18.97
2022-08-19T14:48:50.622Z,19.47
2022-08-19T14:51:20.547Z,19.88
2022-08-19T14:53:49.737Z,19.81
2022-08-19T14:56:19.686Z,20.00
2022-08-19T14:58:46.454Z,20.35
2022-08-19T15:01:14.149Z,20.35
2022-08-19T15:03:43.826Z,20.96
2022-08-19T15:06:12.627Z,20.93
2022-08-19T15:08:42.435Z,20.94
2022-08-19T15:11:20.983Z,21.94
2022-08-19T15:13:48.554Z,21.08
2022-08-19T15:16:18.591Z,22.00
2022-08-19T15:18:46.618Z,22.10
2022-08-19T15:21:14.707Z,22.65
2022-08-19T15:23:41.869Z,23.11
2022-08-19T15:26:14.389Z,24.55
2022-08-19T15:28:43.441Z,28.22
2022-08-19T15:31:17.157Z,29.80
2022-08-19T15:33:52.573Z,30.99
2022-08-19T15:36:19.267Z,32.16
2022-08-19T15:38:46.584Z,32.54
2022-08-19T15:41:26.979Z,33.12
2022-08-19T15:43:59.601Z,33.97
2022-08-19T15:46:31.038Z,34.95
2022-08-19T15:49:00.157Z,35.30
2022-08-19T15:51:28.781Z,36.51
2022-08-19T15:53:55.595Z,36.58
2022-08-19T15:56:26.724Z,36.80
2022-08-19T15:59:12.449Z,36.95
2022-08-19T16:01:57.755Z,38.60
2022-08-19T16:04:43.452Z,39.18
2022-08-19T16:07:10.333Z,40.56
2022-08-19T16:09:37.024Z,40.76
2022-08-19T16:12:06.046Z,41.56
2022-08-19T16:14:35.400Z,42.59
2022-08-19T16:17:02.624Z,43.02
2022-08-19T16:19:29.325Z,43.81
2022-08-19T16:21:56.952Z,44.50
2022-08-19T16:24:30.211Z,44.98
2022-08-19T16:26:57.093Z,45.32
2022-08-19T16:29:33.379Z,45.68
2022-08-19T16:32:05.360Z,46.17
2022-08-19T16:34:33.874Z,46.63
2022-08-19T16:37:01.407Z,46.93
2022-08-19T16:39:28.101Z,47.41
2022-08-19T16:41:54.943Z,47.89
2022-08-19T16:44:22.039Z,48.22
2022-08-19T16:46:58.542Z,48.26
2022-08-19T16:49:53.946Z,48.30
2022-08-19T16:52:17.491Z,48.96
2022-08-19T16:54:44.820Z,49.31
2022-08-19T16:57:12.569Z,50.56
2022-08-19T16:59:48.079Z,50.03
2022-08-19T17:02:16.976Z,49.10
2022-08-19T17:04:43.622Z,46.72
2022-08-19T17:07:10.769Z,45.51
2022-08-19T17:09:37.901Z,45.08
2022-08-19T17:12:04.962Z,44.68
2022-08-19T17:14:31.657Z,45.34
2022-08-19T17:16:58.293Z,45.77
2022-08-19T17:19:25.030Z,46.49
2022-08-19T17:21:52.303Z,46.95
2022-08-19T17:24:18.936Z,46.95
2022-08-19T17:26:45.984Z,47.20
2022-08-19T17:29:16.379Z,47.46
2022-08-19T17:31:43.759Z,49.17
2022-08-19T17:34:10.608Z,46.99
2022-08-19T17:36:38.110Z,46.28
2022-08-19T17:39:05.234Z,46.06
2022-08-19T17:41:34.211Z,46.23
2022-08-19T17:44:02.428Z,46.51
2022-08-19T17:46:30.155Z,45.93
2022-08-19T17:48:57.806Z,45.95
2022-08-19T17:51:33.518Z,46.28
2022-08-19T17:54:00.646Z,46.95
2022-08-19T17:56:28.821Z,47.79
2022-08-19T17:59:00.321Z,46.73
2022-08-19T18:01:52.541Z,45.63
2022-08-19T18:04:17.377Z,45.88
2022-08-19T18:06:46.063Z,47.18
2022-08-19T18:09:20.801Z,45.06
2022-08-19T18:11:52.778Z,45.95
2022-08-19T18:14:33.470Z,45.62
2022-08-19T18:17:10.072Z,45.72
2022-08-19T18:19:43.420Z,45.45
2022-08-19T18:22:38.192Z,46.95
2022-08-19T18:25:09.506Z,48.34
2022-08-19T18:27:36.610Z,49.19
2022-08-19T18:30:06.010Z,49.37
2022-08-19T18:32:38.140Z,50.42
2022-08-19T18:35:11.285Z,50.83
2022-08-19T18:37:39.588Z,51.77
2022-08-19T18:40:25.993Z,51.65
2022-08-19T18:43:11.025Z,52.55
2022-08-19T18:45:57.752Z,52.86
2022-08-19T18:48:43.656Z,53.17
2022-08-19T18:51:11.732Z,53.32
2022-08-19T18:53:41.097Z,53.59
2022-08-19T18:56:10.781Z,53.67
2022-08-19T18:58:38.237Z,53.46
2022-08-19T19:01:17.498Z,54.15
2022-08-19T19:03:50.528Z,54.08
2022-08-19T19:06:26.603Z,53.76
2022-08-19T19:08:55.126Z,54.11
2022-08-19T19:11:26.054Z,54.07
2022-08-19T19:13:55.770Z,53.96
2022-08-19T19:16:24.692Z,54.04
2022-08-19T19:18:52.888Z,53.88
2022-08-19T19:21:24.258Z,54.06
2022-08-19T19:23:52.857Z,54.04
2022-08-19T19:26:21.648Z,53.80
2022-08-19T19:28:49.109Z,53.79
2022-08-19T19:31:20.761Z,53.29
2022-08-19T19:33:47.588Z,54.18
2022-08-19T19:36:14.593Z,54.35
2022-08-19T19:38:48.672Z,54.75
2022-08-19T19:41:18.875Z,55.06
2022-08-19T19:43:45.785Z,55.24
2022-08-19T19:46:13.879Z,54.64
2022-08-19T19:48:40.594Z,54.05
2022-08-19T19:51:07.254Z,53.94
2022-08-19T19:53:33.897Z,53.79
2022-08-19T19:56:02.210Z,54.14
2022-08-19T19:58:31.218Z,54.09
2022-08-19T20:00:59.286Z,53.79
2022-08-19T20:03:27.200Z,53.45
2022-08-19T20:05:54.915Z,53.83
2022-08-19T20:08:40.044Z,53.65
2022-08-19T20:11:07.556Z,53.76
2022-08-19T20:13:35.274Z,54.12
2022-08-19T20:16:04.777Z,54.13
2022-08-19T20:18:31.516Z,54.34
2022-08-19T20:21:00.086Z,59.14
2022-08-19T20:23:27.000Z,57.54
2022-08-19T20:25:54.507Z,56.97
2022-08-19T20:28:22.908Z,56.54
2022-08-19T20:30:50.136Z,56.77
2022-08-19T20:33:16.945Z,56.73
2022-08-19T20:35:44.986Z,56.84
2022-08-19T20:38:11.945Z,55.44
2022-08-19T20:40:39.379Z,54.97
2022-08-19T20:43:11.902Z,55.10
2022-08-19T20:45:38.875Z,53.94
2022-08-19T20:48:08.529Z,54.90
2022-08-19T20:50:36.214Z,55.14
2022-08-19T20:53:11.369Z,54.68
2022-08-19T20:55:38.326Z,54.74
2022-08-19T20:58:04.996Z,54.86
2022-08-19T21:00:31.687Z,54.81
2022-08-19T21:02:58.296Z,54.84
2022-08-19T21:05:30.277Z,55.11
2022-08-19T21:07:57.744Z,55.23
2022-08-19T21:10:26.134Z,54.84
2022-08-19T21:12:53.642Z,54.61
2022-08-19T21:15:20.294Z,55.22
2022-08-19T21:17:48.694Z,53.62
2022-08-19T21:20:15.481Z,53.53
2022-08-19T21:22:42.390Z,54.24
2022-08-19T21:25:09.170Z,54.09
2022-08-19T21:27:35.971Z,53.88
2022-08-19T21:30:04.637Z,53.26
2022-08-19T21:32:31.439Z,52.19
2022-08-19T21:34:58.127Z,51.49
2022-08-19T21:37:26.142Z,51.32
2022-08-19T21:39:54.758Z,51.25
2022-08-19T21:42:23.140Z,51.10
2022-08-19T21:44:49.804Z,51.21
2022-08-19T21:47:16.566Z,51.00
2022-08-19T21:49:43.232Z,51.40
2022-08-19T21:52:09.999Z,51.49
2022-08-19T21:54:38.504Z,51.17
2022-08-19T21:57:07.129Z,50.74
2022-08-19T21:59:41.154Z,50.14
2022-08-19T22:02:20.075Z,50.22
2022-08-19T22:04:47.346Z,49.76
2022-08-19T22:07:14.806Z,49.53
2022-08-19T22:09:42.592Z,49.69
2022-08-19T22:12:21.081Z,49.51
2022-08-19T22:14:47.754Z,49.83
2022-08-19T22:17:14.759Z,50.03
2022-08-19T22:19:41.479Z,50.09
2022-08-19T22:22:08.445Z,51.09
2022-08-19T22:24:35.098Z,51.21
2022-08-19T22:27:08.563Z,51.19
2022-08-19T22:29:37.396Z,50.71
2022-08-19T22:32:26.492Z,50.62
2022-08-19T22:34:51.831Z,50.46
2022-08-19T22:37:18.586Z,50.15
2022-08-19T22:39:45.509Z,49.85
2022-08-19T22:42:12.752Z,50.10
2022-08-19T22:44:39.406Z,50.33
2022-08-19T22:47:06.099Z,50.39
2022-08-19T22:49:32.777Z,50.34
2022-08-19T22:52:18.335Z,50.02
2022-08-19T22:54:54.218Z,49.98
2022-08-19T22:57:24.005Z,50.26
2022-08-19T22:59:53.301Z,50.06
2022-08-19T23:02:23.490Z,50.07
2022-08-19T23:04:51.053Z,50.25
2022-08-19T23:07:19.152Z,50.57
2022-08-19T23:09:50.404Z,51.05
2022-08-19T23:12:27.074Z,50.97
2022-08-19T23:14:53.897Z,50.99
2022-08-19T23:17:20.636Z,51.13
2022-08-19T23:19:47.314Z,51.10
2022-08-19T23:22:17.482Z,50.99
2022-08-19T23:24:44.705Z,51.27
2022-08-19T23:27:30.271Z,51.64
2022-08-19T23:30:15.334Z,51.96
2022-08-19T23:32:41.918Z,51.91
2022-08-19T23:35:09.730Z,51.98
2022-08-19T23:37:37.485Z,52.24
2022-08-19T23:40:09.061Z,52.56
2022-08-19T23:42:47.612Z,52.71
2022-08-19T23:45:23.605Z,52.82
2022-08-19T23:47:53.710Z,52.94
2022-08-19T23:50:26.816Z,53.01
2022-08-19T23:52:58.935Z,54.24
2022-08-19T23:55:35.318Z,54.48
2022-08-19T23:58:04.694Z,54.27
